sensor_id;sensor_type;location;lat;lon;timestamp;pressure;altitude;pressure_sealevel;temperature;humidity
52975;BME280;38839;45.186;5.720;2022-07-22T00:01:58;99192.91;;;26.06;40.39
52975;BME280;38839;45.186;5.720;2022-07-22T00:04:23;99196.09;;;25.99;40.50
52975;BME280;38839;45.186;5.720;2022-07-22T00:06:48;99194.69;;;25.93;40.62
52975;BME280;38839;45.186;5.720;2022-07-22T00:09:14;99182.94;;;25.81;40.74
52975;BME280;38839;45.186;5.720;2022-07-22T00:11:39;99185.84;;;25.78;40.79
52975;BME280;38839;45.186;5.720;2022-07-22T00:14:05;99189.66;;;25.74;40.80
52975;BME280;38839;45.186;5.720;2022-07-22T00:16:31;99198.16;;;25.66;41.01
52975;BME280;38839;45.186;5.720;2022-07-22T00:18:57;99192.06;;;25.64;40.96
52975;BME280;38839;45.186;5.720;2022-07-22T00:21:23;99193.31;;;25.59;41.19
52975;BME280;38839;45.186;5.720;2022-07-22T00:23:48;99190.94;;;25.54;41.45
52975;BME280;38839;45.186;5.720;2022-07-22T00:26:14;99186.84;;;25.48;41.39
52975;BME280;38839;45.186;5.720;2022-07-22T00:28:39;99191.13;;;25.51;41.50
52975;BME280;38839;45.186;5.720;2022-07-22T00:31:05;99187.91;;;25.46;41.87
52975;BME280;38839;45.186;5.720;2022-07-22T00:33:31;99189.81;;;25.44;41.82
52975;BME280;38839;45.186;5.720;2022-07-22T00:35:57;99181.91;;;25.42;41.75
52975;BME280;38839;45.186;5.720;2022-07-22T00:38:22;99184.09;;;25.50;41.59
52975;BME280;38839;45.186;5.720;2022-07-22T00:40:47;99181.72;;;25.45;41.70
52975;BME280;38839;45.186;5.720;2022-07-22T00:43:13;99179.72;;;25.35;41.86
52975;BME280;38839;45.186;5.720;2022-07-22T00:45:38;99181.84;;;25.29;41.97
52975;BME280;38839;45.186;5.720;2022-07-22T00:48:04;99174.75;;;25.28;42.12
52975;BME280;38839;45.186;5.720;2022-07-22T00:50:30;99176.59;;;25.28;42.14
52975;BME280;38839;45.186;5.720;2022-07-22T00:52:55;99191.00;;;25.25;42.30
52975;BME280;38839;45.186;5.720;2022-07-22T00:55:21;99177.81;;;25.22;42.10
52975;BME280;38839;45.186;5.720;2022-07-22T00:57:46;99178.00;;;25.19;42.51
52975;BME280;38839;45.186;5.720;2022-07-22T01:00:16;99177.25;;;25.17;42.49
52975;BME280;38839;45.186;5.720;2022-07-22T01:02:42;99171.91;;;25.17;42.69
52975;BME280;38839;45.186;5.720;2022-07-22T01:05:07;99175.50;;;25.16;42.88
52975;BME280;38839;45.186;5.720;2022-07-22T01:07:33;99173.34;;;25.08;42.94
52975;BME280;38839;45.186;5.720;2022-07-22T01:09:58;99177.78;;;25.08;42.91
52975;BME280;38839;45.186;5.720;2022-07-22T01:12:24;99176.19;;;25.05;42.95
52975;BME280;38839;45.186;5.720;2022-07-22T01:14:49;99173.72;;;25.02;43.22
52975;BME280;38839;45.186;5.720;2022-07-22T01:17:15;99178.94;;;25.04;43.32
52975;BME280;38839;45.186;5.720;2022-07-22T01:19:40;99176.47;;;25.01;43.17
52975;BME280;38839;45.186;5.720;2022-07-22T01:22:06;99172.09;;;25.00;43.32
52975;BME280;38839;45.186;5.720;2022-07-22T01:24:31;99171.16;;;25.01;43.33
52975;BME280;38839;45.186;5.720;2022-07-22T01:26:58;99175.34;;;25.05;43.13
52975;BME280;38839;45.186;5.720;2022-07-22T01:29:23;99176.47;;;25.01;43.23
52975;BME280;38839;45.186;5.720;2022-07-22T01:31:48;99167.50;;;25.02;43.23
52975;BME280;38839;45.186;5.720;2022-07-22T01:34:14;99175.41;;;25.03;43.36
52975;BME280;38839;45.186;5.720;2022-07-22T01:36:39;99173.34;;;24.94;43.43
52975;BME280;38839;45.186;5.720;2022-07-22T01:39:05;99172.47;;;24.94;43.53
52975;BME280;38839;45.186;5.720;2022-07-22T01:41:30;99171.13;;;24.86;43.84
52975;BME280;38839;45.186;5.720;2022-07-22T01:43:56;99171.59;;;24.79;43.73
52975;BME280;38839;45.186;5.720;2022-07-22T01:46:21;99175.88;;;24.81;43.67
52975;BME280;38839;45.186;5.720;2022-07-22T01:48:49;99173.41;;;24.78;43.92
52975;BME280;38839;45.186;5.720;2022-07-22T01:51:14;99169.22;;;24.74;43.89
52975;BME280;38839;45.186;5.720;2022-07-22T01:53:40;99180.28;;;24.68;44.33
52975;BME280;38839;45.186;5.720;2022-07-22T01:56:06;99176.84;;;24.66;44.13
52975;BME280;38839;45.186;5.720;2022-07-22T01:58:31;99172.34;;;24.66;44.28
52975;BME280;38839;45.186;5.720;2022-07-22T02:00:57;99170.34;;;24.56;44.40
52975;BME280;38839;45.186;5.720;2022-07-22T02:03:22;99174.16;;;24.52;44.43
52975;BME280;38839;45.186;5.720;2022-07-22T02:05:47;99170.50;;;24.53;44.74
52975;BME280;38839;45.186;5.720;2022-07-22T02:08:13;99164.66;;;24.46;44.90
52975;BME280;38839;45.186;5.720;2022-07-22T02:10:38;99165.53;;;24.46;44.92
52975;BME280;38839;45.186;5.720;2022-07-22T02:13:04;99173.00;;;24.56;44.58
52975;BME280;38839;45.186;5.720;2022-07-22T02:15:30;99162.72;;;24.49;44.59
52975;BME280;38839;45.186;5.720;2022-07-22T02:17:55;99176.63;;;24.55;44.56
52975;BME280;38839;45.186;5.720;2022-07-22T02:20:21;99165.19;;;24.53;44.39
52975;BME280;38839;45.186;5.720;2022-07-22T02:22:47;99168.91;;;24.50;44.67
52975;BME280;38839;45.186;5.720;2022-07-22T02:25:12;99171.41;;;24.37;44.95
52975;BME280;38839;45.186;5.720;2022-07-22T02:27:39;99173.78;;;24.27;44.99
52975;BME280;38839;45.186;5.720;2022-07-22T02:30:05;99169.28;;;24.28;44.94
52975;BME280;38839;45.186;5.720;2022-07-22T02:32:31;99162.16;;;24.28;45.04
52975;BME280;38839;45.186;5.720;2022-07-22T02:34:57;99169.47;;;24.25;45.02
52975;BME280;38839;45.186;5.720;2022-07-22T02:37:22;99167.59;;;24.27;45.05
52975;BME280;38839;45.186;5.720;2022-07-22T02:39:47;99168.53;;;24.26;45.45
52975;BME280;38839;45.186;5.720;2022-07-22T02:42:14;99169.66;;;24.22;45.13
52975;BME280;38839;45.186;5.720;2022-07-22T02:44:40;99163.91;;;24.14;45.40
52975;BME280;38839;45.186;5.720;2022-07-22T02:47:05;99167.72;;;24.09;45.63
52975;BME280;38839;45.186;5.720;2022-07-22T02:49:31;99168.66;;;24.08;45.54
52975;BME280;38839;45.186;5.720;2022-07-22T02:51:56;99162.56;;;24.06;45.77
52975;BME280;38839;45.186;5.720;2022-07-22T02:54:21;99167.28;;;24.01;45.71
52975;BME280;38839;45.186;5.720;2022-07-22T02:56:47;99163.69;;;24.02;45.55
52975;BME280;38839;45.186;5.720;2022-07-22T02:59:12;99169.53;;;23.93;45.74
52975;BME280;38839;45.186;5.720;2022-07-22T03:01:38;99162.69;;;23.89;46.11
52975;BME280;38839;45.186;5.720;2022-07-22T03:04:03;99154.78;;;23.87;46.05
52975;BME280;38839;45.186;5.720;2022-07-22T03:06:29;99165.19;;;23.92;46.06
52975;BME280;38839;45.186;5.720;2022-07-22T03:08:54;99163.66;;;23.88;45.86
52975;BME280;38839;45.186;5.720;2022-07-22T03:11:20;99165.19;;;23.92;46.06
52975;BME280;38839;45.186;5.720;2022-07-22T03:13:45;99161.91;;;23.87;46.07
52975;BME280;38839;45.186;5.720;2022-07-22T03:16:12;99159.84;;;23.76;46.35
52975;BME280;38839;45.186;5.720;2022-07-22T03:18:38;99170.50;;;23.76;46.38
52975;BME280;38839;45.186;5.720;2022-07-22T03:21:04;99174.19;;;23.74;46.41
52975;BME280;38839;45.186;5.720;2022-07-22T03:23:29;99169.13;;;23.69;46.91
52975;BME280;38839;45.186;5.720;2022-07-22T03:25:55;99171.03;;;23.67;46.90
52975;BME280;38839;45.186;5.720;2022-07-22T03:28:22;99167.84;;;23.60;47.16
52975;BME280;38839;45.186;5.720;2022-07-22T03:30:47;99175.47;;;23.66;46.82
52975;BME280;38839;45.186;5.720;2022-07-22T03:33:12;99177.38;;;23.64;46.92
52975;BME280;38839;45.186;5.720;2022-07-22T03:35:38;99173.59;;;23.68;46.83
52975;BME280;38839;45.186;5.720;2022-07-22T03:38:03;99172.91;;;23.65;47.21
52975;BME280;38839;45.186;5.720;2022-07-22T03:40:29;99168.25;;;23.68;47.18
52975;BME280;38839;45.186;5.720;2022-07-22T03:42:54;99177.28;;;23.66;46.92
52975;BME280;38839;45.186;5.720;2022-07-22T03:45:19;99185.97;;;23.69;46.94
52975;BME280;38839;45.186;5.720;2022-07-22T03:47:45;99187.50;;;23.74;47.04
52975;BME280;38839;45.186;5.720;2022-07-22T03:50:10;99189.22;;;23.75;46.85
52975;BME280;38839;45.186;5.720;2022-07-22T03:52:36;99183.75;;;23.78;47.07
52975;BME280;38839;45.186;5.720;2022-07-22T03:55:02;99185.63;;;23.76;47.20
52975;BME280;38839;45.186;5.720;2022-07-22T03:57:27;99187.69;;;23.70;47.48
52975;BME280;38839;45.186;5.720;2022-07-22T03:59:54;99186.47;;;23.76;47.07
52975;BME280;38839;45.186;5.720;2022-07-22T04:02:19;99188.22;;;23.61;47.40
52975;BME280;38839;45.186;5.720;2022-07-22T04:04:45;99190.78;;;23.63;47.78
52975;BME280;38839;45.186;5.720;2022-07-22T04:07:10;99198.66;;;23.64;47.59
52975;BME280;38839;45.186;5.720;2022-07-22T04:09:35;99192.41;;;23.65;47.13
52975;BME280;38839;45.186;5.720;2022-07-22T04:12:01;99191.56;;;23.65;47.15
52975;BME280;38839;45.186;5.720;2022-07-22T04:14:26;99191.66;;;23.63;47.17
52975;BME280;38839;45.186;5.720;2022-07-22T04:16:52;99189.75;;;23.65;46.90
52975;BME280;38839;45.186;5.720;2022-07-22T04:19:17;99188.13;;;23.63;47.36
52975;BME280;38839;45.186;5.720;2022-07-22T04:21:43;99188.22;;;23.61;47.04
52975;BME280;38839;45.186;5.720;2022-07-22T04:24:08;99193.88;;;23.55;47.24
52975;BME280;38839;45.186;5.720;2022-07-22T04:26:34;99185.47;;;23.47;47.35
52975;BME280;38839;45.186;5.720;2022-07-22T04:28:59;99191.63;;;23.47;47.31
52975;BME280;38839;45.186;5.720;2022-07-22T04:31:25;99192.47;;;23.48;47.40
52975;BME280;38839;45.186;5.720;2022-07-22T04:33:50;99190.59;;;23.50;47.67
52975;BME280;38839;45.186;5.720;2022-07-22T04:36:15;99189.47;;;23.54;47.12
52975;BME280;38839;45.186;5.720;2022-07-22T04:38:41;99194.56;;;23.59;46.96
52975;BME280;38839;45.186;5.720;2022-07-22T04:41:06;99193.34;;;23.64;46.90
52975;BME280;38839;45.186;5.720;2022-07-22T04:43:32;99196.13;;;23.63;46.92
52975;BME280;38839;45.186;5.720;2022-07-22T04:45:57;99183.91;;;23.90;46.08
52975;BME280;38839;45.186;5.720;2022-07-22T04:48:23;99191.63;;;24.41;45.04
52975;BME280;38839;45.186;5.720;2022-07-22T04:50:48;99193.03;;;24.77;44.53
52975;BME280;38839;45.186;5.720;2022-07-22T04:53:13;99188.13;;;25.28;43.22
52975;BME280;38839;45.186;5.720;2022-07-22T04:55:39;99186.34;;;25.70;42.30
52975;BME280;38839;45.186;5.720;2022-07-22T04:58:04;99187.22;;;25.84;42.18
52975;BME280;38839;45.186;5.720;2022-07-22T05:00:30;99185.63;;;25.81;42.28
52975;BME280;38839;45.186;5.720;2022-07-22T05:02:55;99195.44;;;25.95;42.05
52975;BME280;38839;45.186;5.720;2022-07-22T05:05:21;99186.00;;;25.89;41.97
52975;BME280;38839;45.186;5.720;2022-07-22T05:07:47;99192.19;;;25.90;41.80
52975;BME280;38839;45.186;5.720;2022-07-22T05:10:13;99189.03;;;25.98;41.76
52975;BME280;38839;45.186;5.720;2022-07-22T05:12:38;99193.78;;;26.07;41.80
52975;BME280;38839;45.186;5.720;2022-07-22T05:15:04;99193.59;;;26.23;41.89
52975;BME280;38839;45.186;5.720;2022-07-22T05:17:30;99198.13;;;26.35;41.40
52975;BME280;38839;45.186;5.720;2022-07-22T05:19:55;99198.13;;;26.35;41.38
52975;BME280;38839;45.186;5.720;2022-07-22T05:22:20;99191.50;;;26.54;41.14
52975;BME280;38839;45.186;5.720;2022-07-22T05:24:46;99195.63;;;26.72;40.77
52975;BME280;38839;45.186;5.720;2022-07-22T05:27:11;99195.00;;;26.81;40.58
52975;BME280;38839;45.186;5.720;2022-07-22T05:29:37;99191.56;;;27.05;40.27
52975;BME280;38839;45.186;5.720;2022-07-22T05:32:02;99184.06;;;27.23;39.64
52975;BME280;38839;45.186;5.720;2022-07-22T05:34:28;99196.69;;;27.34;39.79
52975;BME280;38839;45.186;5.720;2022-07-22T05:36:53;99190.88;;;27.53;39.17
52975;BME280;38839;45.186;5.720;2022-07-22T05:39:19;99189.09;;;27.64;39.47
52975;BME280;38839;45.186;5.720;2022-07-22T05:41:44;99193.16;;;27.70;39.24
52975;BME280;38839;45.186;5.720;2022-07-22T05:44:09;99189.94;;;27.78;38.80
52975;BME280;38839;45.186;5.720;2022-07-22T05:46:35;99194.19;;;27.93;37.95
52975;BME280;38839;45.186;5.720;2022-07-22T05:49:00;99191.31;;;28.07;38.56
52975;BME280;38839;45.186;5.720;2022-07-22T05:51:26;99194.28;;;28.16;38.45
52975;BME280;38839;45.186;5.720;2022-07-22T05:53:51;99196.28;;;28.01;38.90
52975;BME280;38839;45.186;5.720;2022-07-22T05:56:16;99198.34;;;28.21;39.07
52975;BME280;38839;45.186;5.720;2022-07-22T05:58:42;99194.47;;;28.61;38.32
52975;BME280;38839;45.186;5.720;2022-07-22T06:01:11;99194.63;;;28.93;37.72
52975;BME280;38839;45.186;5.720;2022-07-22T06:03:37;99202.13;;;28.19;39.32
52975;BME280;38839;45.186;5.720;2022-07-22T06:06:03;99206.69;;;27.68;40.01
52975;BME280;38839;45.186;5.720;2022-07-22T06:08:31;99197.34;;;27.37;40.50
52975;BME280;38839;45.186;5.720;2022-07-22T06:10:57;99201.09;;;27.72;39.56
52975;BME280;38839;45.186;5.720;2022-07-22T06:13:24;99200.63;;;28.97;37.45
52975;BME280;38839;45.186;5.720;2022-07-22T06:15:49;99196.66;;;30.56;34.67
52975;BME280;38839;45.186;5.720;2022-07-22T06:18:15;99197.53;;;31.29;33.29
52975;BME280;38839;45.186;5.720;2022-07-22T06:20:40;99201.72;;;32.52;31.54
52975;BME280;38839;45.186;5.720;2022-07-22T06:23:06;99195.06;;;32.07;32.18
52975;BME280;38839;45.186;5.720;2022-07-22T06:25:31;99200.09;;;31.81;31.75
52975;BME280;38839;45.186;5.720;2022-07-22T06:27:57;99204.38;;;30.28;34.75
52975;BME280;38839;45.186;5.720;2022-07-22T06:30:22;99203.25;;;29.98;34.75
52975;BME280;38839;45.186;5.720;2022-07-22T06:32:48;99197.94;;;29.64;35.51
52975;BME280;38839;45.186;5.720;2022-07-22T06:35:13;99181.69;;;29.66;35.71
52975;BME280;38839;45.186;5.720;2022-07-22T06:37:38;99195.00;;;29.67;35.17
52975;BME280;38839;45.186;5.720;2022-07-22T06:40:04;99195.41;;;29.52;36.07
52975;BME280;38839;45.186;5.720;2022-07-22T06:42:30;99193.31;;;29.33;36.29
52975;BME280;38839;45.186;5.720;2022-07-22T06:44:55;99193.81;;;29.38;36.38
52975;BME280;38839;45.186;5.720;2022-07-22T06:47:21;99203.59;;;29.50;36.14
52975;BME280;38839;45.186;5.720;2022-07-22T06:49:46;99198.03;;;29.85;35.89
52975;BME280;38839;45.186;5.720;2022-07-22T06:52:11;99197.63;;;30.01;35.60
52975;BME280;38839;45.186;5.720;2022-07-22T06:54:37;99200.72;;;29.85;35.98
52975;BME280;38839;45.186;5.720;2022-07-22T06:57:02;99205.03;;;29.54;36.07
52975;BME280;38839;45.186;5.720;2022-07-22T06:59:27;99195.13;;;29.55;36.03
52975;BME280;38839;45.186;5.720;2022-07-22T07:01:53;99195.22;;;29.87;35.81
52975;BME280;38839;45.186;5.720;2022-07-22T07:04:18;99197.53;;;30.24;35.09
52975;BME280;38839;45.186;5.720;2022-07-22T07:06:44;99198.22;;;30.37;35.21
52975;BME280;38839;45.186;5.720;2022-07-22T07:09:09;99201.03;;;30.03;35.17
52975;BME280;38839;45.186;5.720;2022-07-22T07:11:35;99191.84;;;30.06;35.29
52975;BME280;38839;45.186;5.720;2022-07-22T07:14:01;99196.88;;;29.56;35.69
52975;BME280;38839;45.186;5.720;2022-07-22T07:16:26;99195.00;;;28.88;37.00
52975;BME280;38839;45.186;5.720;2022-07-22T07:18:52;99193.91;;;29.81;35.94
52975;BME280;38839;45.186;5.720;2022-07-22T07:21:17;99191.94;;;30.69;34.03
52975;BME280;38839;45.186;5.720;2022-07-22T07:23:43;99187.69;;;31.18;33.38
52975;BME280;38839;45.186;5.720;2022-07-22T07:26:09;99183.75;;;30.92;33.59
52975;BME280;38839;45.186;5.720;2022-07-22T07:28:34;99180.22;;;31.01;33.15
52975;BME280;38839;45.186;5.720;2022-07-22T07:31:01;99174.47;;;31.46;32.73
52975;BME280;38839;45.186;5.720;2022-07-22T07:33:27;99180.50;;;31.69;32.63
52975;BME280;38839;45.186;5.720;2022-07-22T07:35:52;99165.25;;;32.18;31.66
52975;BME280;38839;45.186;5.720;2022-07-22T07:38:18;99177.88;;;32.47;31.38
52975;BME280;38839;45.186;5.720;2022-07-22T07:40:43;99163.88;;;31.64;32.63
52975;BME280;38839;45.186;5.720;2022-07-22T07:43:09;99169.75;;;30.98;33.51
52975;BME280;38839;45.186;5.720;2022-07-22T07:45:35;99171.31;;;30.37;34.57
52975;BME280;38839;45.186;5.720;2022-07-22T07:48:02;99162.50;;;30.77;33.94
52975;BME280;38839;45.186;5.720;2022-07-22T07:50:28;99160.16;;;30.63;33.79
52975;BME280;38839;45.186;5.720;2022-07-22T07:52:53;99158.19;;;31.17;33.12
52975;BME280;38839;45.186;5.720;2022-07-22T07:55:19;99161.19;;;31.74;32.48
52975;BME280;38839;45.186;5.720;2022-07-22T07:57:45;99152.09;;;31.55;32.27
52975;BME280;38839;45.186;5.720;2022-07-22T08:00:15;99153.13;;;31.74;32.03
52975;BME280;38839;45.186;5.720;2022-07-22T08:02:41;99151.56;;;32.49;31.17
52975;BME280;38839;45.186;5.720;2022-07-22T08:05:07;99144.19;;;32.32;30.71
52975;BME280;38839;45.186;5.720;2022-07-22T08:07:33;99145.34;;;31.40;32.92
52975;BME280;38839;45.186;5.720;2022-07-22T08:09:59;99157.00;;;31.00;33.59
52975;BME280;38839;45.186;5.720;2022-07-22T08:12:25;99149.44;;;30.52;34.13
52975;BME280;38839;45.186;5.720;2022-07-22T08:14:50;99139.78;;;31.32;33.49
52975;BME280;38839;45.186;5.720;2022-07-22T08:17:15;99140.50;;;31.94;32.17
52975;BME280;38839;45.186;5.720;2022-07-22T08:19:41;99139.38;;;32.16;31.74
52975;BME280;38839;45.186;5.720;2022-07-22T08:22:06;99134.53;;;31.90;32.11
52975;BME280;38839;45.186;5.720;2022-07-22T08:24:32;99134.13;;;32.04;31.90
52975;BME280;38839;45.186;5.720;2022-07-22T08:26:57;99134.22;;;31.93;32.08
52975;BME280;38839;45.186;5.720;2022-07-22T08:29:22;99128.25;;;32.38;31.10
52975;BME280;38839;45.186;5.720;2022-07-22T08:31:48;99134.75;;;32.65;30.70
52975;BME280;38839;45.186;5.720;2022-07-22T08:34:13;99136.38;;;32.58;30.46
52975;BME280;38839;45.186;5.720;2022-07-22T08:36:39;99126.34;;;32.78;30.41
52975;BME280;38839;45.186;5.720;2022-07-22T08:39:04;99130.38;;;33.11;30.88
52975;BME280;38839;45.186;5.720;2022-07-22T08:41:34;99132.81;;;33.32;30.03
52975;BME280;38839;45.186;5.720;2022-07-22T08:44:02;99127.22;;;33.06;29.53
52975;BME280;38839;45.186;5.720;2022-07-22T08:46:27;99122.00;;;33.32;29.56
52975;BME280;38839;45.186;5.720;2022-07-22T08:48:53;99119.75;;;33.27;30.04
52975;BME280;38839;45.186;5.720;2022-07-22T08:51:20;99121.94;;;33.42;29.70
52975;BME280;38839;45.186;5.720;2022-07-22T08:53:46;99111.31;;;33.58;29.47
52975;BME280;38839;45.186;5.720;2022-07-22T08:56:14;99126.41;;;32.96;30.54
52975;BME280;38839;45.186;5.720;2022-07-22T08:58:40;99116.03;;;32.63;30.93
52975;BME280;38839;45.186;5.720;2022-07-22T09:01:10;99112.28;;;32.74;30.53
52975;BME280;38839;45.186;5.720;2022-07-22T09:04:05;99099.56;;;33.50;29.56
52975;BME280;38839;45.186;5.720;2022-07-22T09:06:31;99099.94;;;33.55;29.67
52975;BME280;38839;45.186;5.720;2022-07-22T09:09:00;99085.47;;;33.46;29.69
52975;BME280;38839;45.186;5.720;2022-07-22T09:11:28;99093.63;;;33.82;29.14
52975;BME280;38839;45.186;5.720;2022-07-22T09:13:55;99100.13;;;34.07;28.49
52975;BME280;38839;45.186;5.720;2022-07-22T09:16:44;99095.72;;;34.50;28.14
52975;BME280;38839;45.186;5.720;2022-07-22T09:19:11;99087.97;;;34.81;27.99
52975;BME280;38839;45.186;5.720;2022-07-22T09:21:42;99077.88;;;35.00;27.56
52975;BME280;38839;45.186;5.720;2022-07-22T09:24:28;99078.41;;;34.43;27.75
52975;BME280;38839;45.186;5.720;2022-07-22T09:26:55;99073.59;;;33.57;29.60
52975;BME280;38839;45.186;5.720;2022-07-22T09:29:21;99074.97;;;33.43;29.41
52975;BME280;38839;45.186;5.720;2022-07-22T09:31:50;99067.53;;;33.45;29.79
52975;BME280;38839;45.186;5.720;2022-07-22T09:34:36;99067.88;;;33.60;29.30
52975;BME280;38839;45.186;5.720;2022-07-22T09:37:02;99068.72;;;34.14;28.82
52975;BME280;38839;45.186;5.720;2022-07-22T09:39:29;99073.72;;;34.27;28.04
52975;BME280;38839;45.186;5.720;2022-07-22T09:42:13;99066.72;;;34.42;27.41
52975;BME280;38839;45.186;5.720;2022-07-22T09:44:41;99067.09;;;34.03;27.96
52975;BME280;38839;45.186;5.720;2022-07-22T09:47:26;99062.88;;;33.83;28.75
52975;BME280;38839;45.186;5.720;2022-07-22T09:49:51;99053.88;;;33.46;29.05
52975;BME280;38839;45.186;5.720;2022-07-22T09:52:17;99052.19;;;33.63;28.61
52975;BME280;38839;45.186;5.720;2022-07-22T09:54:43;99053.31;;;33.43;27.37
52975;BME280;38839;45.186;5.720;2022-07-22T09:57:08;99050.94;;;33.40;28.53
52975;BME280;38839;45.186;5.720;2022-07-22T09:59:33;99046.59;;;33.47;27.83
52975;BME280;38839;45.186;5.720;2022-07-22T10:02:02;99040.50;;;33.45;27.88
52975;BME280;38839;45.186;5.720;2022-07-22T10:04:30;99026.84;;;33.01;28.97
52975;BME280;38839;45.186;5.720;2022-07-22T10:06:56;99033.53;;;32.97;28.91
52975;BME280;38839;45.186;5.720;2022-07-22T10:09:23;99034.09;;;32.73;29.28
52975;BME280;38839;45.186;5.720;2022-07-22T10:11:49;99025.13;;;32.72;29.72
52975;BME280;38839;45.186;5.720;2022-07-22T10:14:17;99027.19;;;32.51;30.26
52975;BME280;38839;45.186;5.720;2022-07-22T10:16:43;99028.13;;;32.69;29.78
52975;BME280;38839;45.186;5.720;2022-07-22T10:19:09;99025.31;;;32.61;30.18
52975;BME280;38839;45.186;5.720;2022-07-22T10:21:35;99012.56;;;32.53;29.79
52975;BME280;38839;45.186;5.720;2022-07-22T10:24:15;99014.00;;;32.47;30.20
52975;BME280;38839;45.186;5.720;2022-07-22T10:26:54;99009.75;;;32.45;29.96
52975;BME280;38839;45.186;5.720;2022-07-22T10:37:50;98997.66;;;32.77;29.64
52975;BME280;38839;45.186;5.720;2022-07-22T10:40:25;98989.63;;;32.67;29.96
52975;BME280;38839;45.186;5.720;2022-07-22T10:47:59;98974.00;;;32.88;30.11
52975;BME280;38839;45.186;5.720;2022-07-22T10:55:34;98960.34;;;32.90;29.88
52975;BME280;38839;45.186;5.720;2022-07-22T10:58:06;98962.88;;;32.92;29.71
52975;BME280;38839;45.186;5.720;2022-07-22T11:00:46;98945.97;;;32.90;29.79
52975;BME280;38839;45.186;5.720;2022-07-22T11:03:12;98945.44;;;33.04;29.26
52975;BME280;38839;45.186;5.720;2022-07-22T11:05:37;98944.91;;;33.00;29.05
52975;BME280;38839;45.186;5.720;2022-07-22T11:08:08;98941.88;;;32.85;29.21
52975;BME280;38839;45.186;5.720;2022-07-22T11:10:34;98935.84;;;32.92;28.94
52975;BME280;38839;45.186;5.720;2022-07-22T11:12:59;98932.94;;;33.03;28.50
52975;BME280;38839;45.186;5.720;2022-07-22T11:15:25;98928.03;;;33.16;28.84
52975;BME280;38839;45.186;5.720;2022-07-22T11:17:56;98922.69;;;33.06;28.37
52975;BME280;38839;45.186;5.720;2022-07-22T11:20:21;98918.22;;;33.15;28.49
52975;BME280;38839;45.186;5.720;2022-07-22T11:22:47;98908.72;;;33.11;27.84
52975;BME280;38839;45.186;5.720;2022-07-22T11:25:13;98912.41;;;33.10;27.82
52975;BME280;38839;45.186;5.720;2022-07-22T11:27:39;98906.19;;;33.10;27.38
52975;BME280;38839;45.186;5.720;2022-07-22T11:30:13;98892.59;;;33.19;27.83
52975;BME280;38839;45.186;5.720;2022-07-22T11:32:41;98894.88;;;33.32;27.08
52975;BME280;38839;45.186;5.720;2022-07-22T11:35:11;98896.72;;;33.50;26.45
52975;BME280;38839;45.186;5.720;2022-07-22T11:37:36;98878.28;;;33.53;26.27
52975;BME280;38839;45.186;5.720;2022-07-22T11:40:08;98876.97;;;33.57;25.80
52975;BME280;38839;45.186;5.720;2022-07-22T11:42:34;98877.66;;;33.59;24.88
52975;BME280;38839;45.186;5.720;2022-07-22T11:44:59;98881.00;;;33.53;25.23
52975;BME280;38839;45.186;5.720;2022-07-22T11:47:24;98876.66;;;33.60;25.32
52975;BME280;38839;45.186;5.720;2022-07-22T11:49:50;98877.34;;;33.80;24.45
52975;BME280;38839;45.186;5.720;2022-07-22T11:52:15;98869.38;;;33.79;25.21
52975;BME280;38839;45.186;5.720;2022-07-22T11:54:43;98863.50;;;33.92;24.42
52975;BME280;38839;45.186;5.720;2022-07-22T11:57:08;98856.09;;;33.94;24.33
52975;BME280;38839;45.186;5.720;2022-07-22T11:59:35;98852.88;;;33.98;24.16
52975;BME280;38839;45.186;5.720;2022-07-22T12:02:02;98851.75;;;34.01;24.47
52975;BME280;38839;45.186;5.720;2022-07-22T12:04:29;98851.25;;;34.05;24.11
52975;BME280;38839;45.186;5.720;2022-07-22T12:06:57;98854.00;;;34.14;23.74
52975;BME280;38839;45.186;5.720;2022-07-22T12:09:26;98845.09;;;34.21;23.71
52975;BME280;38839;45.186;5.720;2022-07-22T12:11:55;98834.94;;;34.23;23.85
52975;BME280;38839;45.186;5.720;2022-07-22T12:14:25;98823.75;;;34.26;24.25
52975;BME280;38839;45.186;5.720;2022-07-22T12:17:08;98833.63;;;34.36;23.44
52975;BME280;38839;45.186;5.720;2022-07-22T12:19:39;98826.19;;;34.38;23.82
52975;BME280;38839;45.186;5.720;2022-07-22T12:22:07;98823.63;;;34.36;24.06
52975;BME280;38839;45.186;5.720;2022-07-22T12:24:34;98824.25;;;34.22;24.13
52975;BME280;38839;45.186;5.720;2022-07-22T12:27:02;98825.25;;;34.21;24.23
52975;BME280;38839;45.186;5.720;2022-07-22T12:29:29;98827.50;;;34.25;23.89
52975;BME280;38839;45.186;5.720;2022-07-22T12:32:00;98824.28;;;34.30;24.36
52975;BME280;38839;45.186;5.720;2022-07-22T12:37:32;98822.09;;;34.34;24.74
52975;BME280;38839;45.186;5.720;2022-07-22T12:42:30;98812.97;;;34.43;24.92
52975;BME280;38839;45.186;5.720;2022-07-22T12:47:50;98799.28;;;34.53;24.49
52975;BME280;38839;45.186;5.720;2022-07-22T12:50:32;98820.28;;;34.59;24.82
52975;BME280;38839;45.186;5.720;2022-07-22T12:55:25;98809.59;;;34.49;24.52
52975;BME280;38839;45.186;5.720;2022-07-22T12:57:51;98807.72;;;34.50;24.91
52975;BME280;38839;45.186;5.720;2022-07-22T13:00:22;98802.16;;;34.59;24.76
52975;BME280;38839;45.186;5.720;2022-07-22T13:02:48;98809.78;;;34.64;25.10
52975;BME280;38839;45.186;5.720;2022-07-22T13:05:14;98796.94;;;34.66;24.95
52975;BME280;38839;45.186;5.720;2022-07-22T13:07:40;98791.22;;;34.69;25.20
52975;BME280;38839;45.186;5.720;2022-07-22T13:10:06;98788.50;;;34.69;24.51
52975;BME280;38839;45.186;5.720;2022-07-22T13:12:32;98796.63;;;34.69;25.04
52975;BME280;38839;45.186;5.720;2022-07-22T13:14:57;98795.78;;;34.85;24.02
52975;BME280;38839;45.186;5.720;2022-07-22T13:17:23;98791.22;;;34.85;23.95
52975;BME280;38839;45.186;5.720;2022-07-22T13:19:48;98787.81;;;34.75;24.19
52975;BME280;38839;45.186;5.720;2022-07-22T13:22:13;98794.75;;;34.86;24.59
52975;BME280;38839;45.186;5.720;2022-07-22T13:24:39;98788.50;;;34.94;23.94
52975;BME280;38839;45.186;5.720;2022-07-22T13:27:04;98775.78;;;34.94;23.43